sensor_id;sensor_type;location;lat;lon;timestamp;pressure;altitude;pressure_sealevel;temperature;humidity
43153;BME280;28756;49.064;9.290;2023-04-03T00:00:43;99881.97;;;1.87;100.00
43153;BME280;28756;49.064;9.290;2023-04-03T00:03:08;99877.72;;;1.83;100.00
43153;BME280;28756;49.064;9.290;2023-04-03T00:05:34;99871.72;;;1.84;100.00
43153;BME280;28756;49.064;9.290;2023-04-03T00:08:01;99865.75;;;1.80;100.00
43153;BME280;28756;49.064;9.290;2023-04-03T00:10:27;99873.44;;;1.80;100.00
43153;BME280;28756;49.064;9.290;2023-04-03T00:12:54;99880.34;;;1.75;100.00
43153;BME280;28756;49.064;9.290;2023-04-03T00:15:20;99877.78;;;1.75;100.00
43153;BME280;28756;49.064;9.290;2023-04-03T00:17:45;99876.06;;;1.74;100.00
43153;BME280;28756;49.064;9.290;2023-04-03T00:20:11;99878.66;;;1.72;100.00
43153;BME280;28756;49.064;9.290;2023-04-03T00:22:37;99880.38;;;1.69;100.00
43153;BME280;28756;49.064;9.290;2023-04-03T00:25:04;99880.38;;;1.69;100.00
43153;BME280;28756;49.064;9.290;2023-04-03T00:27:29;99885.50;;;1.66;100.00
43153;BME280;28756;49.064;9.290;2023-04-03T00:29:55;99887.22;;;1.67;100.00
43153;BME280;28756;49.064;9.290;2023-04-03T00:32:21;99882.09;;;1.64;100.00
43153;BME280;28756;49.064;9.290;2023-04-03T00:34:46;99885.53;;;1.61;100.00
43153;BME280;28756;49.064;9.290;2023-04-03T00:37:12;99882.16;;;1.56;100.00
43153;BME280;28756;49.064;9.290;2023-04-03T00:39:38;99889.00;;;1.51;100.00
43153;BME280;28756;49.064;9.290;2023-04-03T00:42:04;99887.31;;;1.47;100.00
43153;BME280;28756;49.064;9.290;2023-04-03T00:46:59;99892.44;;;1.44;100.00
43153;BME280;28756;49.064;9.290;2023-04-03T00:49:26;99892.47;;;1.40;100.00
43153;BME280;28756;49.064;9.290;2023-04-03T00:51:53;99886.50;;;1.35;100.00
43153;BME280;28756;49.064;9.290;2023-04-03T00:54:20;99886.50;;;1.34;100.00
43153;BME280;28756;49.064;9.290;2023-04-03T00:56:46;99892.47;;;1.34;100.00
43153;BME280;28756;49.064;9.290;2023-04-03T00:59:16;99891.63;;;1.34;100.00
43153;BME280;28756;49.064;9.290;2023-04-03T01:01:46;99888.22;;;1.30;100.00
43153;BME280;28756;49.064;9.290;2023-04-03T01:04:36;99887.38;;;1.28;100.00
43153;BME280;28756;49.064;9.290;2023-04-03T01:07:10;99900.22;;;1.25;100.00
43153;BME280;28756;49.064;9.290;2023-04-03T01:09:38;99896.78;;;1.28;100.00
43153;BME280;28756;49.064;9.290;2023-04-03T01:12:30;99894.22;;;1.29;100.00
43153;BME280;28756;49.064;9.290;2023-04-03T01:15:10;99897.63;;;1.30;100.00
43153;BME280;28756;49.064;9.290;2023-04-03T01:17:53;99892.47;;;1.34;100.00
43153;BME280;28756;49.064;9.290;2023-04-03T01:24:16;99905.28;;;1.33;100.00
43153;BME280;28756;49.064;9.290;2023-04-03T01:26:46;99895.91;;;1.35;100.00
43153;BME280;28756;49.064;9.290;2023-04-03T01:29:11;99898.47;;;1.38;100.00
43153;BME280;28756;49.064;9.290;2023-04-03T01:31:52;99898.44;;;1.39;100.00
43153;BME280;28756;49.064;9.290;2023-04-03T01:34:18;99897.56;;;1.44;100.00
43153;BME280;28756;49.064;9.290;2023-04-03T01:36:45;99906.97;;;1.45;100.00
43153;BME280;28756;49.064;9.290;2023-04-03T01:39:11;99914.63;;;1.46;100.00
43153;BME280;28756;49.064;9.290;2023-04-03T01:41:37;99908.66;;;1.50;100.00
43153;BME280;28756;49.064;9.290;2023-04-03T01:44:03;99913.78;;;1.53;100.00
43153;BME280;28756;49.064;9.290;2023-04-03T01:46:29;99920.59;;;1.53;100.00
43153;BME280;28756;49.064;9.290;2023-04-03T01:48:55;99915.47;;;1.54;100.00
43153;BME280;28756;49.064;9.290;2023-04-03T01:51:21;99914.59;;;1.60;100.00
43153;BME280;28756;49.064;9.290;2023-04-03T01:53:47;99913.72;;;1.63;100.00
43153;BME280;28756;49.064;9.290;2023-04-03T01:56:13;99924.84;;;1.63;100.00
43153;BME280;28756;49.064;9.290;2023-04-03T01:58:38;99918.00;;;1.65;100.00
43153;BME280;28756;49.064;9.290;2023-04-03T02:01:04;99918.84;;;1.66;100.00
43153;BME280;28756;49.064;9.290;2023-04-03T02:03:31;99914.56;;;1.66;100.00
43153;BME280;28756;49.064;9.290;2023-04-03T02:05:57;99913.72;;;1.66;100.00
43153;BME280;28756;49.064;9.290;2023-04-03T02:08:23;99920.56;;;1.67;100.00
43153;BME280;28756;49.064;9.290;2023-04-03T02:10:50;99906.03;;;1.64;100.00
43153;BME280;28756;49.064;9.290;2023-04-03T02:13:16;99908.59;;;1.66;100.00
43153;BME280;28756;49.064;9.290;2023-04-03T02:15:42;99906.88;;;1.68;100.00
43153;BME280;28756;49.064;9.290;2023-04-03T02:18:08;99910.25;;;1.74;100.00
43153;BME280;28756;49.064;9.290;2023-04-03T02:20:35;99914.50;;;1.76;100.00
43153;BME280;28756;49.064;9.290;2023-04-03T02:23:01;99915.38;;;1.78;100.00
43153;BME280;28756;49.064;9.290;2023-04-03T02:25:27;99911.09;;;1.77;100.00
43153;BME280;28756;49.064;9.290;2023-04-03T02:27:52;99913.66;;;1.77;100.00
43153;BME280;28756;49.064;9.290;2023-04-03T02:30:18;99918.78;;;1.77;100.00
43153;BME280;28756;49.064;9.290;2023-04-03T02:32:44;99917.06;;;1.79;100.00
43153;BME280;28756;49.064;9.290;2023-04-03T02:35:11;99923.88;;;1.81;100.00
43153;BME280;28756;49.064;9.290;2023-04-03T02:37:37;99916.19;;;1.81;100.00
43153;BME280;28756;49.064;9.290;2023-04-03T02:40:04;99922.19;;;1.83;100.00
43153;BME280;28756;49.064;9.290;2023-04-03T02:42:30;99917.06;;;1.83;100.00
43153;BME280;28756;49.064;9.290;2023-04-03T02:44:56;99922.19;;;1.83;100.00
43153;BME280;28756;49.064;9.290;2023-04-03T02:47:22;99926.44;;;1.84;100.00
43153;BME280;28756;49.064;9.290;2023-04-03T02:49:47;99921.31;;;1.86;100.00
43153;BME280;28756;49.064;9.290;2023-04-03T02:52:14;99925.56;;;1.87;100.00
43153;BME280;28756;49.064;9.290;2023-04-03T02:54:40;99925.53;;;1.90;100.00
43153;BME280;28756;49.064;9.290;2023-04-03T02:57:06;99922.13;;;1.89;100.00
43153;BME280;28756;49.064;9.290;2023-04-03T02:59:35;99919.56;;;1.89;100.00
43153;BME280;28756;49.064;9.290;2023-04-03T03:02:01;99917.03;;;1.88;100.00
43153;BME280;28756;49.064;9.290;2023-04-03T03:04:27;99917.88;;;1.88;100.00
43153;BME280;28756;49.064;9.290;2023-04-03T03:06:52;99912.75;;;1.88;100.00
43153;BME280;28756;49.064;9.290;2023-04-03T03:09:18;99923.00;;;1.88;100.00
43153;BME280;28756;49.064;9.290;2023-04-03T03:11:44;99917.88;;;1.87;100.00
43153;BME280;28756;49.064;9.290;2023-04-03T03:14:10;99913.63;;;1.84;100.00
43153;BME280;28756;49.064;9.290;2023-04-03T03:16:35;99918.75;;;1.84;100.00
43153;BME280;28756;49.064;9.290;2023-04-03T03:19:01;99918.75;;;1.83;100.00
43153;BME280;28756;49.064;9.290;2023-04-03T03:21:27;99914.47;;;1.82;100.00
43153;BME280;28756;49.064;9.290;2023-04-03T03:23:52;99914.47;;;1.82;100.00
43153;BME280;28756;49.064;9.290;2023-04-03T03:26:18;99912.78;;;1.81;100.00
43153;BME280;28756;49.064;9.290;2023-04-03T03:28:44;99906.81;;;1.79;100.00
43153;BME280;28756;49.064;9.290;2023-04-03T03:31:10;99904.25;;;1.76;100.00
43153;BME280;28756;49.064;9.290;2023-04-03T03:33:37;99907.72;;;1.71;100.00
43153;BME280;28756;49.064;9.290;2023-04-03T03:36:03;99906.88;;;1.65;100.00
43153;BME280;28756;49.064;9.290;2023-04-03T03:38:29;99904.34;;;1.55;100.00
43153;BME280;28756;49.064;9.290;2023-04-03T03:40:55;99900.97;;;1.50;100.00
43153;BME280;28756;49.064;9.290;2023-04-03T03:43:21;99898.41;;;1.42;100.00
43153;BME280;28756;49.064;9.290;2023-04-03T03:45:51;99898.44;;;1.39;100.00
43153;BME280;28756;49.064;9.290;2023-04-03T03:48:18;99900.19;;;1.36;100.00
43153;BME280;28756;49.064;9.290;2023-04-03T03:50:44;99901.91;;;1.32;100.00
43153;BME280;28756;49.064;9.290;2023-04-03T03:53:10;99902.75;;;1.31;100.00
43153;BME280;28756;49.064;9.290;2023-04-03T03:55:35;99903.63;;;1.25;100.00
43153;BME280;28756;49.064;9.290;2023-04-03T03:58:01;99910.47;;;1.22;100.00
43153;BME280;28756;49.064;9.290;2023-04-03T04:00:27;99910.47;;;1.20;100.00
43153;BME280;28756;49.064;9.290;2023-04-03T04:02:53;99919.88;;;1.18;100.00
43153;BME280;28756;49.064;9.290;2023-04-03T04:05:19;99914.75;;;1.17;100.00
43153;BME280;28756;49.064;9.290;2023-04-03T04:07:45;99913.91;;;1.18;100.00
43153;BME280;28756;49.064;9.290;2023-04-03T04:10:11;99907.06;;;1.14;100.00
43153;BME280;28756;49.064;9.290;2023-04-03T04:12:36;99910.50;;;1.06;100.00
43153;BME280;28756;49.064;9.290;2023-04-03T04:15:03;99917.34;;;1.00;100.00
43153;BME280;28756;49.064;9.290;2023-04-03T04:17:29;99923.34;;;0.96;100.00
43153;BME280;28756;49.064;9.290;2023-04-03T04:19:54;99937.00;;;0.93;100.00
43153;BME280;28756;49.064;9.290;2023-04-03T04:22:20;99925.06;;;0.87;100.00
43153;BME280;28756;49.064;9.290;2023-04-03T04:24:46;99935.31;;;0.86;100.00
43153;BME280;28756;49.064;9.290;2023-04-03T04:27:11;99933.59;;;0.86;100.00
43153;BME280;28756;49.064;9.290;2023-04-03T04:29:37;99925.06;;;0.90;100.00
43153;BME280;28756;49.064;9.290;2023-04-03T04:32:03;99923.34;;;0.91;100.00
43153;BME280;28756;49.064;9.290;2023-04-03T04:34:29;99935.31;;;0.87;100.00
43153;BME280;28756;49.064;9.290;2023-04-03T04:36:56;99928.47;;;0.86;100.00
43153;BME280;28756;49.064;9.290;2023-04-03T04:39:21;99929.34;;;0.87;100.00
43153;BME280;28756;49.064;9.290;2023-04-03T04:41:47;99935.31;;;0.83;100.00
43153;BME280;28756;49.064;9.290;2023-04-03T04:44:13;99930.19;;;0.79;100.00
43153;BME280;28756;49.064;9.290;2023-04-03T04:46:38;99927.63;;;0.79;100.00
43153;BME280;28756;49.064;9.290;2023-04-03T04:49:04;99928.47;;;0.77;100.00
43153;BME280;28756;49.064;9.290;2023-04-03T04:51:31;99934.47;;;0.73;100.00
43153;BME280;28756;49.064;9.290;2023-04-03T04:53:56;99928.47;;;0.72;100.00
43153;BME280;28756;49.064;9.290;2023-04-03T04:56:22;99926.78;;;0.68;100.00
43153;BME280;28756;49.064;9.290;2023-04-03T04:58:48;99933.59;;;0.68;100.00
43153;BME280;28756;49.064;9.290;2023-04-03T05:01:14;99931.03;;;0.66;100.00
43153;BME280;28756;49.064;9.290;2023-04-03T05:03:39;99940.44;;;0.64;100.00
43153;BME280;28756;49.064;9.290;2023-04-03T05:06:05;99943.00;;;0.61;100.00
43153;BME280;28756;49.064;9.290;2023-04-03T05:08:32;99948.09;;;0.64;100.00
43153;BME280;28756;49.064;9.290;2023-04-03T05:10:58;99935.31;;;0.62;100.00
43153;BME280;28756;49.064;9.290;2023-04-03T05:13:23;99940.44;;;0.64;100.00
43153;BME280;28756;49.064;9.290;2023-04-03T05:15:49;99938.72;;;0.66;100.00
43153;BME280;28756;49.064;9.290;2023-04-03T05:18:15;99946.41;;;0.68;100.00
43153;BME280;28756;49.064;9.290;2023-04-03T05:20:41;99945.56;;;0.73;100.00
43153;BME280;28756;49.064;9.290;2023-04-03T05:23:06;99943.84;;;0.75;100.00
43153;BME280;28756;49.064;9.290;2023-04-03T05:25:32;99953.22;;;0.79;100.00
43153;BME280;28756;49.064;9.290;2023-04-03T05:27:58;99954.09;;;0.80;100.00
43153;BME280;28756;49.064;9.290;2023-04-03T05:30:24;99950.69;;;0.81;100.00
43153;BME280;28756;49.064;9.290;2023-04-03T05:32:50;99951.53;;;0.82;100.00
43153;BME280;28756;49.064;9.290;2023-04-03T05:35:15;99954.94;;;0.82;100.00
43153;BME280;28756;49.064;9.290;2023-04-03T05:37:41;99954.09;;;0.85;100.00
43153;BME280;28756;49.064;9.290;2023-04-03T05:40:08;99956.66;;;0.85;100.00
43153;BME280;28756;49.064;9.290;2023-04-03T05:42:34;99954.09;;;0.86;100.00
43153;BME280;28756;49.064;9.290;2023-04-03T05:45:00;99955.81;;;0.90;100.00
43153;BME280;28756;49.064;9.290;2023-04-03T05:47:26;99960.06;;;0.84;100.00
43153;BME280;28756;49.064;9.290;2023-04-03T05:49:51;99949.78;;;0.91;100.00
43153;BME280;28756;49.064;9.290;2023-04-03T05:52:28;99954.91;;;0.91;100.00
43153;BME280;28756;49.064;9.290;2023-04-03T05:54:54;99955.78;;;0.92;100.00
43153;BME280;28756;49.064;9.290;2023-04-03T05:57:20;99959.22;;;0.89;100.00
43153;BME280;28756;49.064;9.290;2023-04-03T05:59:47;99961.75;;;0.91;100.00
43153;BME280;28756;49.064;9.290;2023-04-03T06:02:17;99964.34;;;0.99;100.00
43153;BME280;28756;49.064;9.290;2023-04-03T06:04:43;99969.44;;;1.00;100.00
43153;BME280;28756;49.064;9.290;2023-04-03T06:07:15;99963.44;;;1.04;100.00
43153;BME280;28756;49.064;9.290;2023-04-03T06:09:42;99964.25;;;1.28;100.00
43153;BME280;28756;49.064;9.290;2023-04-03T06:12:08;99971.91;;;1.44;100.00
43153;BME280;28756;49.064;9.290;2023-04-03T06:14:34;99961.59;;;1.54;100.00
43153;BME280;28756;49.064;9.290;2023-04-03T06:17:00;99961.63;;;1.51;100.00
43153;BME280;28756;49.064;9.290;2023-04-03T06:19:27;99970.09;;;1.67;100.00
43153;BME280;28756;49.064;9.290;2023-04-03T06:21:53;99959.00;;;1.68;100.00
43153;BME280;28756;49.064;9.290;2023-04-03T06:24:20;99962.34;;;1.84;100.00
43153;BME280;28756;49.064;9.290;2023-04-03T06:26:47;99980.38;;;1.67;100.00
43153;BME280;28756;49.064;9.290;2023-04-03T06:29:13;99981.25;;;1.55;100.00
43153;BME280;28756;49.064;9.290;2023-04-03T06:31:39;99977.84;;;1.60;100.00
43153;BME280;28756;49.064;9.290;2023-04-03T06:34:05;99969.25;;;1.73;100.00
43153;BME280;28756;49.064;9.290;2023-04-03T06:36:33;99970.94;;;1.71;100.00
43153;BME280;28756;49.064;9.290;2023-04-03T06:38:58;99988.06;;;1.69;100.00
43153;BME280;28756;49.064;9.290;2023-04-03T06:41:25;99979.50;;;1.71;100.00
43153;BME280;28756;49.064;9.290;2023-04-03T06:43:51;99982.81;;;1.94;100.00
43153;BME280;28756;49.064;9.290;2023-04-03T06:46:20;99985.53;;;1.64;100.00
43153;BME280;28756;49.064;9.290;2023-04-03T06:48:46;99980.28;;;1.87;100.00
43153;BME280;28756;49.064;9.290;2023-04-03T06:51:28;99983.69;;;1.97;100.00
43153;BME280;28756;49.064;9.290;2023-04-03T06:53:58;99982.59;;;2.34;100.00
43153;BME280;28756;49.064;9.290;2023-04-03T06:56:25;99980.00;;;2.39;100.00
43153;BME280;28756;49.064;9.290;2023-04-03T06:58:53;99988.69;;;2.17;100.00
43153;BME280;28756;49.064;9.290;2023-04-03T07:01:20;99983.66;;;1.99;100.00
43153;BME280;28756;49.064;9.290;2023-04-03T07:03:47;99993.72;;;2.36;100.00
43153;BME280;28756;49.064;9.290;2023-04-03T07:06:17;99996.41;;;2.11;100.00
43153;BME280;28756;49.064;9.290;2023-04-03T07:08:44;100005.00;;;2.12;100.00
43153;BME280;28756;49.064;9.290;2023-04-03T07:11:12;99997.31;;;2.07;100.00
43153;BME280;28756;49.064;9.290;2023-04-03T07:13:38;99998.19;;;2.00;100.00
43153;BME280;28756;49.064;9.290;2023-04-03T07:16:04;100004.03;;;2.25;100.00
43153;BME280;28756;49.064;9.290;2023-04-03T07:18:31;100008.28;;;2.35;100.00
43153;BME280;28756;49.064;9.290;2023-04-03T07:20:57;100007.38;;;2.40;100.00
43153;BME280;28756;49.064;9.290;2023-04-03T07:23:24;100009.91;;;2.46;100.00
43153;BME280;28756;49.064;9.290;2023-04-03T07:25:51;100014.19;;;2.45;100.00
43153;BME280;28756;49.064;9.290;2023-04-03T07:28:19;100020.88;;;2.68;100.00
43153;BME280;28756;49.064;9.290;2023-04-03T07:30:50;100020.72;;;2.90;100.00
43153;BME280;28756;49.064;9.290;2023-04-03T07:33:18;100016.34;;;3.03;100.00
43153;BME280;28756;49.064;9.290;2023-04-03T07:35:45;100022.06;;;3.34;100.00
43153;BME280;28756;49.064;9.290;2023-04-03T07:38:12;100016.13;;;3.26;100.00
43153;BME280;28756;49.064;9.290;2023-04-03T07:40:38;100029.25;;;2.95;100.00
43153;BME280;28756;49.064;9.290;2023-04-03T07:43:04;100030.09;;;2.98;100.00
43153;BME280;28756;49.064;9.290;2023-04-03T07:45:31;100034.09;;;3.27;100.00
43153;BME280;28756;49.064;9.290;2023-04-03T07:47:57;100023.66;;;3.46;100.00
43153;BME280;28756;49.064;9.290;2023-04-03T07:50:24;100019.38;;;3.43;100.00
43153;BME280;28756;49.064;9.290;2023-04-03T07:52:49;100022.56;;;3.66;100.00
43153;BME280;28756;49.064;9.290;2023-04-03T07:55:16;100011.06;;;3.96;100.00
43153;BME280;28756;49.064;9.290;2023-04-03T07:57:42;100025.81;;;3.80;100.00
43153;BME280;28756;49.064;9.290;2023-04-03T08:00:08;100029.59;;;3.48;100.00
43153;BME280;28756;49.064;9.290;2023-04-03T08:02:35;100029.53;;;3.59;100.00
43153;BME280;28756;49.064;9.290;2023-04-03T08:05:00;100034.66;;;3.57;100.00
43153;BME280;28756;49.064;9.290;2023-04-03T08:07:26;100030.22;;;3.73;100.00
43153;BME280;28756;49.064;9.290;2023-04-03T08:09:52;100044.44;;;3.21;100.00
43153;BME280;28756;49.064;9.290;2023-04-03T08:12:18;100037.09;;;3.71;100.00
43153;BME280;28756;49.064;9.290;2023-04-03T08:14:44;100026.06;;;3.61;100.00
43153;BME280;28756;49.064;9.290;2023-04-03T08:17:10;100025.97;;;3.68;100.00
43153;BME280;28756;49.064;9.290;2023-04-03T08:19:39;100030.44;;;3.52;100.00
43153;BME280;28756;49.064;9.290;2023-04-03T08:22:05;100038.81;;;3.72;100.00
43153;BME280;28756;49.064;9.290;2023-04-03T08:24:32;100037.19;;;3.62;100.00
43153;BME280;28756;49.064;9.290;2023-04-03T08:26:59;100032.22;;;3.45;100.00
43153;BME280;28756;49.064;9.290;2023-04-03T08:29:25;100033.34;;;3.99;100.00
43153;BME280;28756;49.064;9.290;2023-04-03T08:31:51;100031.47;;;4.11;100.00
43153;BME280;28756;49.064;9.290;2023-04-03T08:34:17;100025.13;;;4.36;100.00
43153;BME280;28756;49.064;9.290;2023-04-03T08:36:45;100028.25;;;4.58;100.00
43153;BME280;28756;49.064;9.290;2023-04-03T08:39:11;100027.41;;;4.57;100.00
43153;BME280;28756;49.064;9.290;2023-04-03T08:41:39;100026.25;;;4.15;100.00
43153;BME280;28756;49.064;9.290;2023-04-03T08:44:20;100031.19;;;4.33;100.00
43153;BME280;28756;49.064;9.290;2023-04-03T08:49:42;100029.41;;;4.95;100.00
43153;BME280;28756;49.064;9.290;2023-04-03T08:52:18;100037.91;;;4.42;100.00
43153;BME280;28756;49.064;9.290;2023-04-03T08:54:54;100028.41;;;4.47;100.00
43153;BME280;28756;49.064;9.290;2023-04-03T08:57:40;100033.28;;;4.67;100.00
43153;BME280;28756;49.064;9.290;2023-04-03T09:00:23;100034.72;;;4.26;100.00
43153;BME280;28756;49.064;9.290;2023-04-03T09:02:55;100037.25;;;4.27;100.00
43153;BME280;28756;49.064;9.290;2023-04-03T09:08:23;100041.59;;;4.83;100.00
43153;BME280;28756;49.064;9.290;2023-04-03T09:17:03;100036.88;;;4.54;100.00
43153;BME280;28756;49.064;9.290;2023-04-03T09:19:41;100037.50;;;4.71;100.00
43153;BME280;28756;49.064;9.290;2023-04-03T09:22:23;100035.91;;;4.63;100.00
43153;BME280;28756;49.064;9.290;2023-04-03T09:25:15;100045.78;;;4.31;100.00
43153;BME280;28756;49.064;9.290;2023-04-03T09:27:43;100044.25;;;4.18;100.00
43153;BME280;28756;49.064;9.290;2023-04-03T09:30:21;100040.88;;;4.77;100.00
43153;BME280;28756;49.064;9.290;2023-04-03T09:32:51;100045.72;;;4.36;100.00
43153;BME280;28756;49.064;9.290;2023-04-03T09:35:33;100038.44;;;4.67;100.00
43153;BME280;28756;49.064;9.290;2023-04-03T09:41:12;100035.69;;;4.78;100.00
43153;BME280;28756;49.064;9.290;2023-04-03T09:43:39;100025.00;;;5.01;100.00
43153;BME280;28756;49.064;9.290;2023-04-03T09:46:31;100026.72;;;5.01;100.00
43153;BME280;28756;49.064;9.290;2023-04-03T09:49:02;100028.28;;;4.55;100.00
43153;BME280;28756;49.064;9.290;2023-04-03T09:51:30;100028.94;;;4.71;100.00
43153;BME280;28756;49.064;9.290;2023-04-03T09:53:57;100025.94;;;4.39;100.00
43153;BME280;28756;49.064;9.290;2023-04-03T09:56:27;100032.19;;;4.21;100.00
43153;BME280;28756;49.064;9.290;2023-04-03T10:04:05;100035.72;;;4.14;100.00
43153;BME280;28756;49.064;9.290;2023-04-03T10:06:33;100025.34;;;4.20;100.00
43153;BME280;28756;49.064;9.290;2023-04-03T10:09:34;100030.38;;;4.30;100.00
43153;BME280;28756;49.064;9.290;2023-04-03T10:14:37;100032.34;;;4.10;100.00
43153;BME280;28756;49.064;9.290;2023-04-03T10:19:57;100029.72;;;4.12;100.00
43153;BME280;28756;49.064;9.290;2023-04-03T10:22:57;100021.97;;;4.15;100.00
43153;BME280;28756;49.064;9.290;2023-04-03T10:34:45;100021.78;;;4.31;100.00
43153;BME280;28756;49.064;9.290;2023-04-03T10:46:13;100009.56;;;4.42;100.00
43153;BME280;28756;49.064;9.290;2023-04-03T10:49:19;100015.66;;;4.38;100.00
43153;BME280;28756;49.064;9.290;2023-04-03T10:52:13;100019.06;;;4.38;100.00
43153;BME280;28756;49.064;9.290;2023-04-03T10:57:17;100014.00;;;4.35;100.00
43153;BME280;28756;49.064;9.290;2023-04-03T11:02:58;100008.66;;;4.48;100.00
43153;BME280;28756;49.064;9.290;2023-04-03T11:05:46;100013.28;;;4.25;100.00
43153;BME280;28756;49.064;9.290;2023-04-03T11:08:36;100015.84;;;4.25;100.00
43153;BME280;28756;49.064;9.290;2023-04-03T11:11:35;100005.41;;;4.33;100.00
43153;BME280;28756;49.064;9.290;2023-04-03T11:14:28;99999.94;;;4.55;100.00
43153;BME280;28756;49.064;9.290;2023-04-03T11:17:08;100001.50;;;4.68;96.42
43153;BME280;28756;49.064;9.290;2023-04-03T11:22:42;100003.47;;;4.51;89.83
43153;BME280;28756;49.064;9.290;2023-04-03T11:27:55;99992.59;;;4.86;92.80
43153;BME280;28756;49.064;9.290;2023-04-03T11:34:01;99999.63;;;4.77;83.75
43153;BME280;28756;49.064;9.290;2023-04-03T11:39:29;99990.16;;;4.77;86.76
43153;BME280;28756;49.064;9.290;2023-04-03T11:44:43;99989.34;;;4.75;82.52
43153;BME280;28756;49.064;9.290;2023-04-03T11:47:12;99995.34;;;4.74;90.28
43153;BME280;28756;49.064;9.290;2023-04-03T11:50:04;99988.66;;;4.64;84.57
43153;BME280;28756;49.064;9.290;2023-04-03T12:00:59;99977.34;;;4.72;93.29
43153;BME280;28756;49.064;9.290;2023-04-03T12:08:47;99964.84;;;5.01;91.83
43153;BME280;28756;49.064;9.290;2023-04-03T12:11:31;99959.28;;;5.24;84.36
43153;BME280;28756;49.064;9.290;2023-04-03T12:16:42;99953.09;;;5.77;81.70
43153;BME280;28756;49.064;9.290;2023-04-03T12:24:34;99943.75;;;5.27;77.07
43153;BME280;28756;49.064;9.290;2023-04-03T12:33:04;99946.38;;;5.26;65.36
43153;BME280;28756;49.064;9.290;2023-04-03T12:35:55;99927.22;;;5.37;64.17
43153;BME280;28756;49.064;9.290;2023-04-03T12:38:59;99942.31;;;5.58;64.67
43153;BME280;28756;49.064;9.290;2023-04-03T12:42:15;99942.31;;;5.58;64.61
43153;BME280;28756;49.064;9.290;2023-04-03T12:45:16;99942.03;;;5.26;66.28
43153;BME280;28756;49.064;9.290;2023-04-03T12:47:44;99939.72;;;5.58;67.24
43153;BME280;28756;49.064;9.290;2023-04-03T12:50:30;99942.78;;;5.33;62.17
43153;BME280;28756;49.064;9.290;2023-04-03T12:53:16;99938.16;;;5.49;63.00
43153;BME280;28756;49.064;9.290;2023-04-03T12:55:44;99938.63;;;5.69;62.38
43153;BME280;28756;49.064;9.290;2023-04-03T12:58:22;99932.78;;;6.04;63.21
43153;BME280;28756;49.064;9.290;2023-04-03T13:01:13;99925.31;;;6.29;58.09
43153;BME280;28756;49.064;9.290;2023-04-03T13:03:53;99930.16;;;5.63;59.57
43153;BME280;28756;49.064;9.290;2023-04-03T13:06:38;99927.34;;;5.74;59.26
43153;BME280;28756;49.064;9.290;2023-04-03T13:09:04;99918.44;;;6.28;58.93
43153;BME280;28756;49.064;9.290;2023-04-03T13:11:37;99921.44;;;6.82;60.05
43153;BME280;28756;49.064;9.290;2023-04-03T13:14:17;99929.91;;;6.54;53.46
43153;BME280;28756;49.064;9.290;2023-04-03T13:17:00;99927.06;;;6.27;54.35
43153;BME280;28756;49.064;9.290;2023-04-03T13:19:28;99930.22;;;6.02;54.61
43153;BME280;28756;49.064;9.290;2023-04-03T13:22:04;99925.78;;;6.81;57.30
43153;BME280;28756;49.064;9.290;2023-04-03T13:24:34;99918.50;;;6.95;56.04
43153;BME280;28756;49.064;9.290;2023-04-03T13:27:02;99920.56;;;7.16;54.15
43153;BME280;28756;49.064;9.290;2023-04-03T13:29:33;99910.78;;;7.25;54.05
43153;BME280;28756;49.064;9.290;2023-04-03T13:32:02;99928.13;;;6.90;54.08
43153;BME280;28756;49.064;9.290;2023-04-03T13:34:42;99926.53;;;6.85;56.24
43153;BME280;28756;49.064;9.290;2023-04-03T13:37:27;99933.56;;;6.07;58.85
43153;BME280;28756;49.064;9.290;2023-04-03T13:40:12;99925.22;;;5.93;62.89
43153;BME280;28756;49.064;9.290;2023-04-03T13:42:40;99933.00;;;5.91;61.86
43153;BME280;28756;49.064;9.290;2023-04-03T13:45:20;99919.34;;;5.86;60.50
43153;BME280;28756;49.064;9.290;2023-04-03T13:47:48;99918.69;;;6.17;62.19
43153;BME280;28756;49.064;9.290;2023-04-03T13:50:18;99924.94;;;6.07;60.30
43153;BME280;28756;49.064;9.290;2023-04-03T13:52:54;99922.38;;;5.64;58.35
43153;BME280;28756;49.064;9.290;2023-04-03T13:55:36;99925.25;;;5.49;62.47
43153;BME280;28756;49.064;9.290;2023-04-03T13:58:26;99929.31;;;5.61;62.01
43153;BME280;28756;49.064;9.290;2023-04-03T14:01:01;99928.44;;;5.63;58.48
43153;BME280;28756;49.064;9.290;2023-04-03T14:06:13;99899.34;;;6.70;54.13
43153;BME280;28756;49.064;9.290;2023-04-03T14:08:41;99909.88;;;6.62;54.10
43153;BME280;28756;49.064;9.290;2023-04-03T14:11:22;99910.31;;;6.43;54.92
43153;BME280;28756;49.064;9.290;2023-04-03T14:13:50;99907.09;;;5.96;56.66
43153;BME280;28756;49.064;9.290;2023-04-03T14:16:21;99916.00;;;5.82;59.73
43153;BME280;28756;49.064;9.290;2023-04-03T14:18:49;99912.88;;;5.66;58.19
43153;BME280;28756;49.064;9.290;2023-04-03T14:21:18;99918.16;;;5.60;57.19
43153;BME280;28756;49.064;9.290;2023-04-03T14:23:45;99916.03;;;5.37;57.14
43153;BME280;28756;49.064;9.290;2023-04-03T14:26:23;99911.34;;;5.14;56.55
43153;BME280;28756;49.064;9.290;2023-04-03T14:28:53;99915.72;;;5.10;60.94
43153;BME280;28756;49.064;9.290;2023-04-03T14:31:20;99905.84;;;5.31;60.83
43153;BME280;28756;49.064;9.290;2023-04-03T14:33:47;99912.91;;;5.65;58.94
43153;BME280;28756;49.064;9.290;2023-04-03T14:36:17;99904.66;;;5.88;56.99
43153;BME280;28756;49.064;9.290;2023-04-03T14:38:44;99893.00;;;5.70;55.64
43153;BME280;28756;49.064;9.290;2023-04-03T14:41:13;99890.75;;;5.95;57.14
43153;BME280;28756;49.064;9.290;2023-04-03T14:43:40;99903.97;;;6.21;57.64
43153;BME280;28756;49.064;9.290;2023-04-03T14:46:15;99889.88;;;5.95;55.27
43153;BME280;28756;49.064;9.290;2023-04-03T14:48:43;99894.84;;;5.65;55.14
43153;BME280;28756;49.064;9.290;2023-04-03T14:51:14;99906.94;;;5.63;53.49
43153;BME280;28756;49.064;9.290;2023-04-03T14:53:42;99895.31;;;5.43;54.28
43153;BME280;28756;49.064;9.290;2023-04-03T14:56:23;99896.56;;;5.64;54.70